Teretulemast minu uuele ilmaprognooside lehele
Praegu on leht veel arendamise järgus: tõlked, linnade lisamine, menüüde korrastamine jne.
Endine leht vt. menüüs! / Andke teada probleemidest(nt. koha valik - kas töötab jne.) menüüs: Muu kraam - Saada kiri.



There is a communication problem. Go directly to the Meteoalarm site : www.meteoalarm.eu and check the Weather-warnings there .

/home/edgarnuum/domains/hotserv.eq.ee/public_html/nautical/weatherpro/metar/metarDisplay.php

Nearby METAR Reports

   
EEKE - Kuressaare, Estonia
Distance from station: SE 3 km
Uuendatud: 08-02-2023 21:50
Overcast  
Overcast  
   Tuul: SW 5.7 m/s
Tuul: SW 5.7 m/s
Temperatuur: 2°C
Wind Chill: -3°C
Kastepunkt: 1°C
Niiskus: 93%
Baromeeter: 1033 hPa
Pilvisus: Overcast
Nähtavus: 10 km
Cloud details: Overcast 304.8 m
EEKE 081950Z AUTO 23011KT 200V260 9999NDV OVC010 02/01 Q1033
EEKA - Kardla, Estonia
Distance from station: NNE 84 km
Uuendatud: 08-02-2023 18:20
NOT Current
Overcast  
Overcast  
   Tuul: SW 4.1 m/s
Tuul: SW 4.1 m/s
Temperatuur: 3°C
Wind Chill: -1°C
Kastepunkt: 2°C
Niiskus: 93%
Baromeeter: 1033 hPa
Pilvisus: Overcast
Nähtavus: 9 km
Cloud details: Overcast 121.9 m
EEKA 081620Z 23008KT 180V300 9000 OVC004 03/02 Q1033
EEEI - Harjumaa Amari, Estonia
Distance from station: NE 151 km
Uuendatud: 08-02-2023 21:50
Mist, Overcast  
Mist, Overcast  
   Tuul: SW 6.2 m/s
Tuul: SW 6.2 m/s
Temperatuur: 2°C
Wind Chill: -3°C
Kastepunkt: 2°C
Niiskus: 100%
Baromeeter: 1031 hPa
Pilvisus: Overcast
Nähtavus: 5 km
Cloud details: Overcast 61 m
EEEI 081950Z 22012KT 5000 BR OVC002 02/02 Q1031
EETN - Tallinn L. Meri, Estonia
Distance from station: NE 187 km
Uuendatud: 08-02-2023 21:50
Light Drizzle, Mist, Overcast  
Light Drizzle, Mist, Overcast  
   Tuul: SW 5.1 m/s
Tuul: SW 5.1 m/s
Temperatuur: 2°C
Wind Chill: -2°C
Kastepunkt: 2°C
Niiskus: 100%
Baromeeter: 1031 hPa
Pilvisus: Overcast
Nähtavus: 1 km
Cloud details: Overcast 30.5 m
EETN 081950Z 22010KT 1400 R26/P2000N -DZ BR OVC001 02/02 Q1031 TEMPO 1000
EETU - Tartu, Estonia
Distance from station: E 245 km
Uuendatud: 08-02-2023 21:50
, Overcast  
, Overcast  
   Tuul: SW 6.7 m/s
Tuul: SW 6.7 m/s
Temperatuur: 1°C
Wind Chill: -4°C
Kastepunkt: 0°C
Niiskus: 93%
Baromeeter: 1034 hPa
Pilvisus: Overcast
Nähtavus: 8 km
Cloud details: Overcast 152.4 m
EETU 081950Z AUTO 22013KT 8000 UP OVC005/// 01/00 Q1034
 

Script developed by  Saratoga-weather.org Adapted for the template by  Weerstation Leuven